createdAt,value
2022-12-29T00:01:45.380Z,5.26
2022-12-29T00:04:16.084Z,5.27
2022-12-29T00:06:43.513Z,5.27
2022-12-29T00:09:10.993Z,5.26
2022-12-29T00:11:38.349Z,5.27
2022-12-29T00:14:26.142Z,5.26
2022-12-29T00:16:53.476Z,5.26
2022-12-29T00:19:38.168Z,5.26
2022-12-29T00:22:23.208Z,5.25
2022-12-29T00:25:07.836Z,5.26
2022-12-29T00:27:53.263Z,5.25
2022-12-29T00:30:41.963Z,5.25
2022-12-29T00:33:32.603Z,5.24
2022-12-29T00:36:03.282Z,5.25
2022-12-29T00:38:49.187Z,5.26
2022-12-29T00:41:33.846Z,5.26
2022-12-29T00:44:07.782Z,5.26
2022-12-29T00:46:35.228Z,5.26
2022-12-29T00:49:20.924Z,5.25
2022-12-29T00:51:47.915Z,5.26
2022-12-29T00:54:18.179Z,5.27
2022-12-29T00:56:45.306Z,5.28
2022-12-29T00:59:13.187Z,5.30
2022-12-29T01:01:41.859Z,5.32
2022-12-29T01:04:09.702Z,5.34
2022-12-29T01:06:37.934Z,5.35
2022-12-29T01:09:22.703Z,5.37
2022-12-29T01:11:49.848Z,5.39
2022-12-29T01:14:16.871Z,5.41
2022-12-29T01:16:45.920Z,5.44
2022-12-29T01:19:13.348Z,5.45
2022-12-29T01:21:41.059Z,5.47
2022-12-29T01:24:08.955Z,5.48
2022-12-29T01:26:36.733Z,5.49
2022-12-29T01:29:03.928Z,5.50
2022-12-29T01:31:30.971Z,5.50
2022-12-29T01:33:58.083Z,5.49
2022-12-29T01:36:26.097Z,5.49
2022-12-29T01:38:53.268Z,5.46
2022-12-29T01:41:21.433Z,5.46
2022-12-29T01:43:52.332Z,5.45
2022-12-29T01:46:27.743Z,5.44
2022-12-29T01:48:59.406Z,5.43
2022-12-29T01:51:30.040Z,5.42
2022-12-29T01:54:00.702Z,5.40
2022-12-29T01:56:28.852Z,5.38
2022-12-29T01:59:03.696Z,5.36
2022-12-29T02:01:31.360Z,5.33
2022-12-29T02:03:59.310Z,5.31
2022-12-29T02:06:29.717Z,5.27
2022-12-29T02:08:58.861Z,5.26
2022-12-29T02:11:28.662Z,5.22
2022-12-29T02:13:56.026Z,5.19
2022-12-29T02:16:42.758Z,5.17
2022-12-29T02:19:31.322Z,5.15
2022-12-29T02:22:21.553Z,5.14
2022-12-29T02:25:28.431Z,5.12
2022-12-29T02:28:11.676Z,5.11
2022-12-29T02:31:10.049Z,5.09
2022-12-29T02:33:52.757Z,5.05
2022-12-29T02:36:31.274Z,5.03
2022-12-29T02:43:40.753Z,5.03
2022-12-29T02:46:20.104Z,5.01
2022-12-29T02:48:53.677Z,5.01
2022-12-29T02:51:28.726Z,5.02
2022-12-29T02:54:15.243Z,5.05
2022-12-29T02:56:42.600Z,5.05
2022-12-29T02:59:10.789Z,5.04
2022-12-29T03:02:05.890Z,4.99
2022-12-29T03:04:41.059Z,4.94
2022-12-29T03:07:16.172Z,4.88
2022-12-29T03:09:51.504Z,4.83
2022-12-29T03:12:49.340Z,4.80
2022-12-29T03:15:40.295Z,4.78
2022-12-29T03:18:13.012Z,4.77
2022-12-29T03:20:48.795Z,4.78
2022-12-29T03:23:18.754Z,4.76
2022-12-29T03:25:50.699Z,4.73
2022-12-29T03:28:24.148Z,4.65
2022-12-29T03:30:51.611Z,4.55
2022-12-29T03:33:24.110Z,4.46
2022-12-29T03:35:55.352Z,4.37
2022-12-29T03:38:27.867Z,4.30
2022-12-29T03:40:58.920Z,4.20
2022-12-29T03:43:28.053Z,4.09
2022-12-29T03:45:55.964Z,4.00
2022-12-29T03:48:23.352Z,3.91
2022-12-29T03:50:51.248Z,3.85
2022-12-29T03:53:18.903Z,3.80
2022-12-29T03:55:46.154Z,3.76
2022-12-29T03:58:13.712Z,3.74
2022-12-29T04:01:10.945Z,3.70
2022-12-29T04:03:38.605Z,3.67
2022-12-29T04:06:06.539Z,3.65
2022-12-29T04:08:39.901Z,3.64
2022-12-29T04:11:07.589Z,3.61
2022-12-29T04:13:35.229Z,3.60
2022-12-29T04:16:02.708Z,3.63
2022-12-29T04:18:30.157Z,3.64
2022-12-29T04:21:04.020Z,3.64
2022-12-29T04:23:35.091Z,3.63
2022-12-29T04:26:03.790Z,3.61
2022-12-29T04:28:32.564Z,3.60
2022-12-29T04:31:15.465Z,3.61
2022-12-29T04:33:44.647Z,3.61
2022-12-29T04:36:12.000Z,3.62
2022-12-29T04:38:39.805Z,3.62
2022-12-29T04:41:07.779Z,3.61
2022-12-29T04:43:36.365Z,3.59
2022-12-29T04:46:22.633Z,3.56
2022-12-29T04:48:57.595Z,3.53
2022-12-29T04:51:43.475Z,3.51
2022-12-29T04:54:12.471Z,3.49
2022-12-29T04:56:39.853Z,3.48
2022-12-29T04:59:08.416Z,3.48
2022-12-29T05:01:35.716Z,3.47
2022-12-29T05:04:03.047Z,3.48
2022-12-29T05:06:30.505Z,3.48
2022-12-29T05:08:57.491Z,3.48
2022-12-29T05:11:24.981Z,3.50
2022-12-29T05:13:53.802Z,3.52
2022-12-29T05:16:20.940Z,3.55
2022-12-29T05:18:48.275Z,3.58
2022-12-29T05:21:15.488Z,3.59
2022-12-29T05:23:43.960Z,3.60
2022-12-29T05:26:11.340Z,3.61
2022-12-29T05:28:57.198Z,3.62
2022-12-29T05:31:24.356Z,3.61
2022-12-29T05:33:51.509Z,3.62
2022-12-29T05:36:18.789Z,3.61
2022-12-29T05:38:50.229Z,3.61
2022-12-29T05:41:18.159Z,3.60
2022-12-29T05:43:48.191Z,3.59
2022-12-29T05:46:41.665Z,3.60
2022-12-29T05:49:12.120Z,3.58
2022-12-29T05:51:53.421Z,3.58
2022-12-29T05:54:20.918Z,3.60
2022-12-29T05:56:48.130Z,3.63
2022-12-29T05:59:15.143Z,3.67
2022-12-29T06:01:43.287Z,3.70
2022-12-29T06:04:10.941Z,3.73
2022-12-29T06:06:38.313Z,3.75
2022-12-29T06:09:05.605Z,3.75
2022-12-29T06:11:32.789Z,3.73
2022-12-29T06:14:00.639Z,3.71
2022-12-29T06:16:27.887Z,3.71
2022-12-29T06:18:58.480Z,3.72
2022-12-29T06:21:25.565Z,3.75
2022-12-29T06:23:52.649Z,3.78
2022-12-29T06:26:21.088Z,3.80
2022-12-29T06:28:48.989Z,3.82
2022-12-29T06:31:17.310Z,3.82
2022-12-29T06:33:49.565Z,3.83
2022-12-29T06:36:17.399Z,3.83
2022-12-29T06:38:44.750Z,3.83
2022-12-29T06:41:11.731Z,3.84
2022-12-29T06:43:44.483Z,3.87
2022-12-29T06:46:24.836Z,3.90
2022-12-29T06:48:51.909Z,3.92
2022-12-29T06:51:18.897Z,3.95
2022-12-29T06:53:46.026Z,3.98
2022-12-29T06:56:13.442Z,4.00
2022-12-29T06:58:40.379Z,4.02
2022-12-29T07:01:07.734Z,4.02
2022-12-29T07:03:36.485Z,4.02
2022-12-29T07:06:03.653Z,4.03
2022-12-29T07:08:30.666Z,4.06
2022-12-29T07:10:57.864Z,4.09
2022-12-29T07:13:25.054Z,4.13
2022-12-29T07:15:52.115Z,4.16
2022-12-29T07:18:19.863Z,4.19
2022-12-29T07:20:47.071Z,4.22
2022-12-29T07:23:14.084Z,4.25
2022-12-29T07:25:42.550Z,4.26
2022-12-29T07:28:09.653Z,4.26
2022-12-29T07:30:38.596Z,4.29
2022-12-29T07:33:06.207Z,4.32
2022-12-29T07:35:33.512Z,4.39
2022-12-29T07:38:00.506Z,4.43
2022-12-29T07:40:27.783Z,4.48
2022-12-29T07:42:54.878Z,4.52
2022-12-29T07:45:30.416Z,4.56
2022-12-29T07:48:10.554Z,4.59
2022-12-29T07:50:39.911Z,4.61
2022-12-29T07:53:06.941Z,4.61
2022-12-29T07:55:34.701Z,4.61
2022-12-29T07:58:02.238Z,4.63
2022-12-29T08:00:29.525Z,4.67
2022-12-29T08:02:59.300Z,4.71
2022-12-29T08:05:27.238Z,4.75
2022-12-29T08:07:54.657Z,4.79
2022-12-29T08:10:21.786Z,4.84
2022-12-29T08:12:48.940Z,4.90
2022-12-29T08:15:16.129Z,4.96
2022-12-29T08:17:43.156Z,5.01
2022-12-29T08:20:12.555Z,5.08
2022-12-29T08:22:39.565Z,5.14
2022-12-29T08:25:07.525Z,5.21
2022-12-29T08:27:34.685Z,5.26
2022-12-29T08:30:02.334Z,5.30
2022-12-29T08:32:30.370Z,5.35
2022-12-29T08:34:57.919Z,5.41
2022-12-29T08:37:29.241Z,5.48
2022-12-29T08:39:58.928Z,5.60
2022-12-29T08:42:30.094Z,5.72
2022-12-29T08:44:57.595Z,5.85
2022-12-29T08:47:24.735Z,5.95
2022-12-29T08:49:51.782Z,5.97
2022-12-29T08:52:19.453Z,5.98
2022-12-29T08:54:46.418Z,6.00
2022-12-29T08:59:39.926Z,6.07
2022-12-29T09:02:07.813Z,6.08
2022-12-29T09:04:36.102Z,6.11
2022-12-29T09:07:03.482Z,6.14
2022-12-29T09:09:30.633Z,6.16
2022-12-29T09:11:58.221Z,6.20
2022-12-29T09:14:25.365Z,6.24
2022-12-29T09:17:12.383Z,6.28
2022-12-29T09:19:41.042Z,6.33
2022-12-29T09:22:09.064Z,6.40
2022-12-29T09:24:36.470Z,6.47
2022-12-29T09:27:03.933Z,6.54
2022-12-29T09:29:31.369Z,6.59
2022-12-29T09:31:58.530Z,6.63
2022-12-29T09:34:25.996Z,6.64
2022-12-29T09:36:53.394Z,6.62
2022-12-29T09:39:20.482Z,6.61
2022-12-29T09:41:55.739Z,6.58
2022-12-29T09:44:28.843Z,6.56
2022-12-29T09:46:59.127Z,6.58
2022-12-29T09:49:32.059Z,6.59
2022-12-29T09:52:07.037Z,6.61
2022-12-29T09:54:53.830Z,6.64
2022-12-29T09:57:31.907Z,6.65
2022-12-29T10:00:05.538Z,6.67
2022-12-29T10:02:45.323Z,6.68
2022-12-29T10:05:36.146Z,6.70
2022-12-29T10:08:19.929Z,6.70
2022-12-29T10:10:56.749Z,6.69
2022-12-29T10:13:28.660Z,6.70
2022-12-29T10:16:04.766Z,6.69
2022-12-29T10:18:56.529Z,6.70
2022-12-29T10:21:35.135Z,6.72
2022-12-29T10:24:06.284Z,6.72
2022-12-29T10:26:38.231Z,6.73
2022-12-29T10:29:08.304Z,6.75
2022-12-29T10:31:40.029Z,6.75
2022-12-29T10:34:18.071Z,6.77
2022-12-29T10:36:49.858Z,6.79
2022-12-29T10:39:22.310Z,6.81
2022-12-29T10:44:45.746Z,6.83
2022-12-29T10:47:18.753Z,6.84
2022-12-29T10:49:47.991Z,6.88
2022-12-29T10:52:16.810Z,6.93
2022-12-29T10:54:49.842Z,7.00
2022-12-29T10:57:23.103Z,7.02
2022-12-29T10:59:50.311Z,7.05
2022-12-29T11:02:38.956Z,7.06
2022-12-29T11:05:14.553Z,7.11
2022-12-29T11:07:42.164Z,7.15
2022-12-29T11:10:30.787Z,7.18
2022-12-29T11:13:04.397Z,7.23
2022-12-29T11:15:42.924Z,7.29
2022-12-29T11:18:22.527Z,7.32
2022-12-29T11:20:49.822Z,7.35
2022-12-29T11:23:28.882Z,7.38
2022-12-29T11:26:31.785Z,7.42
2022-12-29T11:29:25.492Z,7.45
2022-12-29T11:31:55.289Z,7.46
2022-12-29T11:34:26.235Z,7.49
2022-12-29T11:36:56.236Z,7.50
2022-12-29T11:39:35.553Z,7.50
2022-12-29T11:42:04.693Z,7.51
2022-12-29T11:44:39.916Z,7.53
2022-12-29T11:47:10.970Z,7.55
2022-12-29T11:49:38.288Z,7.60
2022-12-29T11:52:05.613Z,7.63
2022-12-29T11:54:36.039Z,7.65
2022-12-29T11:57:14.011Z,7.65
2022-12-29T11:59:56.491Z,7.68
2022-12-29T12:02:42.176Z,7.70
2022-12-29T12:05:16.911Z,7.73
2022-12-29T12:07:48.714Z,7.76
2022-12-29T12:10:29.338Z,7.78
2022-12-29T12:13:04.575Z,7.80
2022-12-29T12:15:45.374Z,7.83
2022-12-29T12:18:19.800Z,7.85
2022-12-29T12:20:51.595Z,7.86
2022-12-29T12:23:31.835Z,7.88
2022-12-29T12:26:06.613Z,7.92
2022-12-29T12:28:41.675Z,7.94
2022-12-29T12:31:17.355Z,7.97
2022-12-29T12:33:49.169Z,7.99
2022-12-29T12:36:30.761Z,8.01
2022-12-29T12:39:05.118Z,8.04
2022-12-29T12:41:45.422Z,8.07
2022-12-29T12:44:21.063Z,8.10
2022-12-29T12:47:05.376Z,8.13
2022-12-29T12:49:55.025Z,8.15
2022-12-29T12:52:32.402Z,8.18
2022-12-29T12:55:15.231Z,8.21
2022-12-29T12:57:53.382Z,8.24
2022-12-29T13:00:24.318Z,8.26
2022-12-29T13:03:05.756Z,8.28
2022-12-29T13:06:02.705Z,8.30
2022-12-29T13:08:51.220Z,8.32
2022-12-29T13:11:26.030Z,8.33
2022-12-29T13:14:08.349Z,8.33
2022-12-29T13:16:43.962Z,8.34
2022-12-29T13:19:16.435Z,8.35
2022-12-29T13:22:03.839Z,8.37
2022-12-29T13:24:42.638Z,8.39
2022-12-29T13:27:18.853Z,8.40
2022-12-29T13:29:52.738Z,8.42
2022-12-29T13:32:28.966Z,8.44
2022-12-29T13:35:12.895Z,8.45
2022-12-29T13:37:50.386Z,8.46
2022-12-29T13:40:21.599Z,8.47
2022-12-29T13:42:50.021Z,8.48
2022-12-29T13:45:19.400Z,8.49
2022-12-29T13:47:51.898Z,8.49
2022-12-29T13:50:22.830Z,8.50
2022-12-29T13:52:57.937Z,8.50
2022-12-29T13:55:34.232Z,8.51
2022-12-29T13:58:07.183Z,8.52
2022-12-29T14:00:45.647Z,8.51
2022-12-29T14:03:38.488Z,8.50
2022-12-29T14:06:21.007Z,8.50
2022-12-29T14:08:49.329Z,8.49
2022-12-29T14:11:19.369Z,8.48
2022-12-29T14:13:48.528Z,8.48
2022-12-29T14:16:33.077Z,8.46
2022-12-29T14:19:11.813Z,8.46
2022-12-29T14:21:39.279Z,8.45
2022-12-29T14:24:41.583Z,8.45
2022-12-29T14:28:04.103Z,8.43
2022-12-29T14:30:53.963Z,8.43
2022-12-29T14:33:23.108Z,8.44
2022-12-29T14:35:53.374Z,8.45
2022-12-29T14:38:33.981Z,8.46
2022-12-29T14:41:26.940Z,8.46
2022-12-29T14:44:01.251Z,8.45
2022-12-29T14:46:44.476Z,8.45
2022-12-29T14:49:20.632Z,8.46
2022-12-29T14:51:49.317Z,8.47
2022-12-29T14:54:50.402Z,8.47
2022-12-29T14:57:24.831Z,8.48
2022-12-29T14:59:55.723Z,8.48
2022-12-29T15:02:28.175Z,8.48
2022-12-29T15:05:00.481Z,8.49
2022-12-29T15:07:29.006Z,8.51
2022-12-29T15:10:01.992Z,8.50
2022-12-29T15:12:38.135Z,8.50
2022-12-29T15:15:16.329Z,8.52
2022-12-29T15:17:43.532Z,8.53
2022-12-29T15:20:25.880Z,8.53
2022-12-29T15:22:58.267Z,8.53
2022-12-29T15:25:27.383Z,8.53
2022-12-29T15:27:57.496Z,8.53
2022-12-29T15:30:24.701Z,8.52
2022-12-29T15:32:52.745Z,8.52
2022-12-29T15:35:30.150Z,8.53
2022-12-29T15:37:57.845Z,8.53
2022-12-29T15:40:30.162Z,8.54
2022-12-29T15:43:10.798Z,8.54
2022-12-29T15:45:42.206Z,8.52
2022-12-29T15:48:16.023Z,8.49
2022-12-29T15:50:45.359Z,8.47
2022-12-29T15:53:20.953Z,8.44
2022-12-29T15:55:48.938Z,8.42
2022-12-29T15:58:25.051Z,8.41
2022-12-29T16:00:54.608Z,8.40
2022-12-29T16:03:22.499Z,8.38
2022-12-29T16:05:57.905Z,8.35
2022-12-29T16:08:39.116Z,8.33
2022-12-29T16:11:22.670Z,8.31
2022-12-29T16:13:53.888Z,8.28
2022-12-29T16:16:24.823Z,8.26
2022-12-29T16:18:57.641Z,8.24
2022-12-29T16:21:28.681Z,8.22
2022-12-29T16:24:01.560Z,8.21
2022-12-29T16:26:29.009Z,8.20
2022-12-29T16:28:59.135Z,8.18
2022-12-29T16:31:34.566Z,8.16
2022-12-29T16:34:12.657Z,8.14
2022-12-29T16:36:55.141Z,8.11
2022-12-29T16:39:30.151Z,8.08
2022-12-29T16:41:57.696Z,8.07
2022-12-29T16:44:27.916Z,8.07
2022-12-29T16:47:20.351Z,8.09
2022-12-29T16:49:55.094Z,8.12
2022-12-29T16:52:25.875Z,8.15
2022-12-29T16:54:57.775Z,8.17
2022-12-29T16:57:31.087Z,8.20
2022-12-29T17:00:01.660Z,8.23
2022-12-29T17:02:33.033Z,8.25
2022-12-29T17:05:04.151Z,8.27
2022-12-29T17:07:32.349Z,8.29
2022-12-29T17:09:59.606Z,8.31
2022-12-29T17:12:30.583Z,8.35
2022-12-29T17:15:00.226Z,8.37
2022-12-29T17:17:35.104Z,8.38
2022-12-29T17:20:05.658Z,8.39
2022-12-29T17:22:33.268Z,8.38
2022-12-29T17:25:02.759Z,8.38
2022-12-29T17:27:35.821Z,8.39
2022-12-29T17:30:07.077Z,8.38
2022-12-29T17:32:34.310Z,8.38
2022-12-29T17:35:01.345Z,8.38
2022-12-29T17:37:38.314Z,8.38
2022-12-29T17:40:07.430Z,8.36
2022-12-29T17:42:36.905Z,8.36
2022-12-29T17:45:04.658Z,8.34
2022-12-29T17:47:32.035Z,8.33
2022-12-29T17:50:04.808Z,8.32
2022-12-29T17:52:35.924Z,8.31
2022-12-29T17:55:03.930Z,8.29
2022-12-29T17:57:34.008Z,8.27
2022-12-29T18:00:01.172Z,8.25
2022-12-29T18:02:31.735Z,8.17
2022-12-29T18:05:00.248Z,8.02
2022-12-29T18:07:35.681Z,7.88
2022-12-29T18:10:04.638Z,7.76
2022-12-29T18:12:34.996Z,7.71
2022-12-29T18:15:02.061Z,7.69
2022-12-29T18:17:29.154Z,7.71
2022-12-29T18:19:56.512Z,7.72
2022-12-29T18:22:24.891Z,7.76
2022-12-29T18:24:52.883Z,7.80
2022-12-29T18:27:22.567Z,7.82
2022-12-29T18:29:51.208Z,7.83
2022-12-29T18:32:21.404Z,7.80
2022-12-29T18:34:56.099Z,7.75
2022-12-29T18:37:23.472Z,7.72
2022-12-29T18:39:51.513Z,7.70
2022-12-29T18:42:20.134Z,7.67
2022-12-29T18:44:47.245Z,7.64
2022-12-29T18:47:14.408Z,7.63
2022-12-29T18:49:41.744Z,7.61
2022-12-29T18:52:13.119Z,7.59
2022-12-29T18:54:40.119Z,7.58
2022-12-29T18:57:07.264Z,7.58
2022-12-29T18:59:34.455Z,7.58
2022-12-29T19:02:01.616Z,7.61
2022-12-29T19:04:34.218Z,7.61
2022-12-29T19:07:06.701Z,7.60
2022-12-29T19:09:46.619Z,7.60
2022-12-29T19:12:18.976Z,7.58
2022-12-29T19:14:47.397Z,7.56
2022-12-29T19:17:15.760Z,7.53
2022-12-29T19:19:43.585Z,7.51
2022-12-29T19:22:12.592Z,7.49
2022-12-29T19:24:42.560Z,7.46
2022-12-29T19:27:09.588Z,7.44
2022-12-29T19:29:36.742Z,7.44
2022-12-29T19:32:04.044Z,7.48
2022-12-29T19:34:31.160Z,7.51
2022-12-29T19:36:58.210Z,7.55
2022-12-29T19:39:25.691Z,7.58
2022-12-29T19:41:52.756Z,7.60
2022-12-29T19:44:20.131Z,7.63
2022-12-29T19:46:47.471Z,7.64
2022-12-29T19:49:14.541Z,7.65
2022-12-29T19:51:41.840Z,7.66
2022-12-29T19:54:08.985Z,7.69
2022-12-29T19:56:35.971Z,7.72
2022-12-29T19:59:02.965Z,7.74
2022-12-29T20:01:30.256Z,7.76
2022-12-29T20:03:57.869Z,7.80
2022-12-29T20:06:24.910Z,7.83
2022-12-29T20:08:51.979Z,7.86
2022-12-29T20:11:20.045Z,7.90
2022-12-29T20:13:48.108Z,7.95
2022-12-29T20:16:17.711Z,7.99
2022-12-29T20:18:45.428Z,8.04
2022-12-29T20:21:17.460Z,8.11
2022-12-29T20:23:45.503Z,8.15
2022-12-29T20:26:19.008Z,8.19
2022-12-29T20:28:46.456Z,8.22
2022-12-29T20:31:21.117Z,8.25
2022-12-29T20:33:48.705Z,8.27
2022-12-29T20:36:18.139Z,8.28
2022-12-29T20:38:46.067Z,8.28
2022-12-29T20:41:14.603Z,8.27
2022-12-29T20:43:44.111Z,8.28
2022-12-29T20:46:12.280Z,8.27
2022-12-29T20:48:40.185Z,8.28
2022-12-29T20:51:07.632Z,8.28
2022-12-29T20:53:35.534Z,8.29
2022-12-29T20:56:06.823Z,8.29
2022-12-29T20:58:47.162Z,8.31
2022-12-29T21:01:24.740Z,8.31
2022-12-29T21:03:51.866Z,8.32
2022-12-29T21:06:19.972Z,8.32
2022-12-29T21:08:47.311Z,8.32
2022-12-29T21:11:15.095Z,8.34
2022-12-29T21:13:42.675Z,8.34
2022-12-29T21:16:13.784Z,8.36
2022-12-29T21:18:41.754Z,8.38
2022-12-29T21:21:10.838Z,8.40
2022-12-29T21:23:40.813Z,8.41
2022-12-29T21:26:11.526Z,8.42
2022-12-29T21:28:40.597Z,8.42
2022-12-29T21:31:12.408Z,8.43
2022-12-29T21:33:40.028Z,8.43
2022-12-29T21:36:09.319Z,8.43
2022-12-29T21:38:37.007Z,8.45
2022-12-29T21:41:10.355Z,8.46
2022-12-29T21:43:38.075Z,8.45
2022-12-29T21:46:06.304Z,8.46
2022-12-29T21:48:33.705Z,8.46
2022-12-29T21:51:30.818Z,8.47
2022-12-29T21:54:34.892Z,8.48
2022-12-29T21:57:04.261Z,8.47
2022-12-29T21:59:49.940Z,8.47
2022-12-29T22:02:39.905Z,8.47
2022-12-29T22:05:27.144Z,8.45
2022-12-29T22:08:11.989Z,8.46
2022-12-29T22:11:01.434Z,8.46
2022-12-29T22:13:28.652Z,8.45
2022-12-29T22:15:55.775Z,8.44
2022-12-29T22:18:22.797Z,8.43
2022-12-29T22:20:49.948Z,8.43
2022-12-29T22:23:17.142Z,8.42
2022-12-29T22:25:45.022Z,8.42
2022-12-29T22:28:12.310Z,8.41
2022-12-29T22:30:39.598Z,8.39
2022-12-29T22:33:07.491Z,8.39
2022-12-29T22:35:34.800Z,8.38
2022-12-29T22:38:02.027Z,8.37
2022-12-29T22:40:29.055Z,8.36
2022-12-29T22:42:56.024Z,8.35
2022-12-29T22:45:23.148Z,8.34
2022-12-29T22:47:52.915Z,8.34
2022-12-29T22:50:20.123Z,8.32
2022-12-29T22:52:47.197Z,8.32
2022-12-29T22:55:14.492Z,8.30
2022-12-29T22:57:41.658Z,8.30
2022-12-29T23:00:10.829Z,8.29
2022-12-29T23:02:38.194Z,8.29
2022-12-29T23:05:06.476Z,8.29
2022-12-29T23:07:34.358Z,8.30
2022-12-29T23:10:01.670Z,8.31
2022-12-29T23:12:29.780Z,8.31
2022-12-29T23:14:56.804Z,8.30
2022-12-29T23:17:25.234Z,8.30
2022-12-29T23:19:52.286Z,8.30
2022-12-29T23:22:19.708Z,8.30
2022-12-29T23:24:46.650Z,8.30
2022-12-29T23:27:14.046Z,8.30
2022-12-29T23:29:41.555Z,8.29
2022-12-29T23:32:08.597Z,8.28
2022-12-29T23:34:35.557Z,8.27
2022-12-29T23:37:02.843Z,8.27
2022-12-29T23:39:29.812Z,8.26
2022-12-29T23:41:56.778Z,8.23
2022-12-29T23:44:23.787Z,8.22
2022-12-29T23:46:50.931Z,8.19
2022-12-29T23:49:18.664Z,8.19
2022-12-29T23:51:45.803Z,8.18
2022-12-29T23:54:12.786Z,8.17
2022-12-29T23:56:40.061Z,8.17
2022-12-29T23:59:07.879Z,8.19
